Time;durP1;ratioP1;P1;durP2;ratioP2;P2;SDS_P1;SDS_P2;PMS_P1;PMS_P2;Temp;Humidity;BMP_temperature;BMP_pressure;BME280_temperature;BME280_humidity;BME280_pressure;Samples;Min_cycle;Max_cycle;Signal;HPM_P1;HPM_P2
2019/12/05 00:00:29;;;;;;;23.35;12.75;;;;;;;-4.01;66.88965;95437.9;;;;
2019/12/05 00:01:31;;;;;;;23.35;12.75;;;;;;;-4.01;66.88965;95437.9;;;;
2019/12/05 00:02:32;;;;;;;23.35;12.75;;;;;;;-4.01;66.88965;95437.9;;;;
2019/12/05 00:03:34;;;;;;;23.35;12.75;;;;;;;-4.01;66.88965;95437.9;;;;
2019/12/05 00:04:35;;;;;;;23.35;12.75;;;;;;;-4.01;66.88965;95437.9;;;;
2019/12/05 00:05:36;;;;;;;23.35;12.75;;;;;;;-4.01;66.88965;95437.9;;;;
2019/12/05 00:06:37;;;;;;;23.35;12.75;;;;;;;-4.01;66.88965;95437.9;;;;
2019/12/05 00:07:39;;;;;;;23.35;12.75;;;;;;;-4.01;66.88965;95437.9;;;;
2019/12/05 00:08:40;;;;;;;21.5;12.15;;;;;;;-4.01;66.81738;95443.17;;;;
2019/12/05 00:09:41;;;;;;;21.5;12.15;;;;;;;-4.01;66.81738;95443.17;;;;
2019/12/05 00:10:42;;;;;;;21.5;12.15;;;;;;;-4.01;66.81738;95443.17;;;;
2019/12/05 00:11:43;;;;;;;21.5;12.15;;;;;;;-4.01;66.81738;95443.17;;;;
2019/12/05 00:12:44;;;;;;;21.5;12.15;;;;;;;-4.01;66.81738;95443.17;;;;
2019/12/05 00:13:45;;;;;;;21.5;12.15;;;;;;;-4.01;66.81738;95443.17;;;;
2019/12/05 00:14:46;;;;;;;21.5;12.15;;;;;;;-4.01;66.81738;95443.17;;;;
2019/12/05 00:15:47;;;;;;;21.5;12.15;;;;;;;-4.01;66.81738;95443.17;;;;
2019/12/05 00:16:58;;;;;;;21.5;12.15;;;;;;;-4.01;66.81738;95443.17;;;;
2019/12/05 00:18:12;;;;;;;21.5;12.15;;;;;;;-4.01;66.81738;95443.17;;;;
2019/12/05 00:20:22;;;;;;;23.25;12.25;;;;;;;-4.02;66.95898;95442.91;;;;
2019/12/05 00:21:40;;;;;;;23.25;12.25;;;;;;;-4.02;66.95898;95442.91;;;;
2019/12/05 00:23:03;;;;;;;23.25;12.25;;;;;;;-4.02;66.95898;95442.91;;;;
2019/12/05 00:24:05;;;;;;;23.25;12.25;;;;;;;-4.02;66.95898;95442.91;;;;
2019/12/05 00:25:06;;;;;;;23.25;12.25;;;;;;;-4.02;66.95898;95442.91;;;;
2019/12/05 00:26:07;;;;;;;23.25;12.25;;;;;;;-4.02;66.95898;95442.91;;;;
2019/12/05 00:27:08;;;;;;;23.25;12.25;;;;;;;-4.02;66.95898;95442.91;;;;
2019/12/05 00:28:09;;;;;;;23.25;12.25;;;;;;;-4.02;66.95898;95442.91;;;;
2019/12/05 00:29:10;;;;;;;23.25;12.25;;;;;;;-4.02;66.95898;95442.91;;;;
2019/12/05 00:30:11;;;;;;;22.75;12.65;;;;;;;-4.16;67.06055;95457.86;;;;
2019/12/05 00:31:12;;;;;;;22.75;12.65;;;;;;;-4.16;67.06055;95457.86;;;;
2019/12/05 00:32:13;;;;;;;22.75;12.65;;;;;;;-4.16;67.06055;95457.86;;;;
2019/12/05 00:33:14;;;;;;;22.75;12.65;;;;;;;-4.16;67.06055;95457.86;;;;
2019/12/05 00:34:16;;;;;;;22.75;12.65;;;;;;;-4.16;67.06055;95457.86;;;;
2019/12/05 00:35:17;;;;;;;22.75;12.65;;;;;;;-4.16;67.06055;95457.86;;;;
2019/12/05 00:36:18;;;;;;;22.75;12.65;;;;;;;-4.16;67.06055;95457.86;;;;
2019/12/05 00:37:19;;;;;;;22.75;12.65;;;;;;;-4.16;67.06055;95457.86;;;;
2019/12/05 00:38:20;;;;;;;22.75;12.65;;;;;;;-4.16;67.06055;95457.86;;;;
2019/12/05 00:39:21;;;;;;;22.75;12.65;;;;;;;-4.16;67.06055;95457.86;;;;
2019/12/05 00:40:22;;;;;;;23.4;12.6;;;;;;;-4.23;67.4541;95460.74;;;;
2019/12/05 00:41:23;;;;;;;23.4;12.6;;;;;;;-4.23;67.4541;95460.74;;;;
2019/12/05 00:42:24;;;;;;;23.4;12.6;;;;;;;-4.23;67.4541;95460.74;;;;
2019/12/05 00:43:26;;;;;;;23.4;12.6;;;;;;;-4.23;67.4541;95460.74;;;;
2019/12/05 00:44:27;;;;;;;23.4;12.6;;;;;;;-4.23;67.4541;95460.74;;;;
2019/12/05 00:45:28;;;;;;;23.4;12.6;;;;;;;-4.23;67.4541;95460.74;;;;
2019/12/05 00:46:29;;;;;;;23.4;12.6;;;;;;;-4.23;67.4541;95460.74;;;;
2019/12/05 00:47:30;;;;;;;23.4;12.6;;;;;;;-4.23;67.4541;95460.74;;;;
2019/12/05 00:48:31;;;;;;;23.4;12.6;;;;;;;-4.23;67.4541;95460.74;;;;
2019/12/05 00:49:32;;;;;;;23.4;12.6;;;;;;;-4.23;67.4541;95460.74;;;;
2019/12/05 00:50:33;;;;;;;23.4;12.6;;;;;;;-4.23;67.4541;95460.74;;;;
2019/12/05 00:51:34;;;;;;;23.9;12.25;;;;;;;-4.18;67.75293;95471.61;;;;
2019/12/05 00:52:35;;;;;;;23.9;12.25;;;;;;;-4.18;67.75293;95471.61;;;;
2019/12/05 00:53:36;;;;;;;23.9;12.25;;;;;;;-4.18;67.75293;95471.61;;;;
2019/12/05 00:54:37;;;;;;;23.9;12.25;;;;;;;-4.18;67.75293;95471.61;;;;
2019/12/05 00:55:39;;;;;;;23.9;12.25;;;;;;;-4.18;67.75293;95471.61;;;;
2019/12/05 00:56:40;;;;;;;23.9;12.25;;;;;;;-4.18;67.75293;95471.61;;;;
2019/12/05 00:57:41;;;;;;;23.9;12.25;;;;;;;-4.18;67.75293;95471.61;;;;
2019/12/05 00:58:42;;;;;;;23.9;12.25;;;;;;;-4.18;67.75293;95471.61;;;;
2019/12/05 00:59:43;;;;;;;23.9;12.25;;;;;;;-4.18;67.75293;95471.61;;;;
2019/12/05 01:00:44;;;;;;;23.9;12.25;;;;;;;-4.18;67.75293;95471.61;;;;
2019/12/05 01:01:45;;;;;;;24.9;13.5;;;;;;;-4.14;67.9043;95480.91;;;;
2019/12/05 01:02:46;;;;;;;24.9;13.5;;;;;;;-4.14;67.9043;95480.91;;;;
2019/12/05 01:03:47;;;;;;;24.9;13.5;;;;;;;-4.14;67.9043;95480.91;;;;
2019/12/05 01:04:49;;;;;;;24.9;13.5;;;;;;;-4.14;67.9043;95480.91;;;;
2019/12/05 01:05:50;;;;;;;24.9;13.5;;;;;;;-4.14;67.9043;95480.91;;;;
2019/12/05 01:06:51;;;;;;;24.9;13.5;;;;;;;-4.14;67.9043;95480.91;;;;
2019/12/05 01:07:52;;;;;;;24.9;13.5;;;;;;;-4.14;67.9043;95480.91;;;;
2019/12/05 01:08:53;;;;;;;24.9;13.5;;;;;;;-4.14;67.9043;95480.91;;;;
2019/12/05 01:09:55;;;;;;;24.9;13.5;;;;;;;-4.14;67.9043;95480.91;;;;
2019/12/05 01:10:56;;;;;;;24.9;13.5;;;;;;;-4.14;67.9043;95480.91;;;;
2019/12/05 01:11:57;;;;;;;30.55;14.7;;;;;;;-4.04;67.9502;95490.99;;;;
2019/12/05 01:12:58;;;;;;;30.55;14.7;;;;;;;-4.04;67.9502;95490.99;;;;
2019/12/05 01:13:59;;;;;;;30.55;14.7;;;;;;;-4.04;67.9502;95490.99;;;;
2019/12/05 01:15:00;;;;;;;30.55;14.7;;;;;;;-4.04;67.9502;95490.99;;;;
2019/12/05 01:16:01;;;;;;;30.55;14.7;;;;;;;-4.04;67.9502;95490.99;;;;
2019/12/05 01:17:14;;;;;;;30.55;14.7;;;;;;;-4.04;67.9502;95490.99;;;;
2019/12/05 01:18:51;;;;;;;30.55;14.7;;;;;;;-4.04;67.9502;95490.99;;;;
2019/12/05 01:20:06;;;;;;;30.55;14.7;;;;;;;-4.04;67.9502;95490.99;;;;
2019/12/05 01:21:08;;;;;;;30.55;14.7;;;;;;;-4.04;67.9502;95490.99;;;;
2019/12/05 01:22:09;;;;;;;30.55;14.7;;;;;;;-4.04;67.9502;95490.99;;;;
2019/12/05 01:23:10;;;;;;;29.85;14.7;;;;;;;-3.96;68.26465;95488.39;;;;
2019/12/05 01:24:11;;;;;;;29.85;14.7;;;;;;;-3.96;68.26465;95488.39;;;;
2019/12/05 01:25:12;;;;;;;29.85;14.7;;;;;;;-3.96;68.26465;95488.39;;;;
2019/12/05 01:26:14;;;;;;;29.85;14.7;;;;;;;-3.96;68.26465;95488.39;;;;
2019/12/05 01:27:15;;;;;;;29.85;14.7;;;;;;;-3.96;68.26465;95488.39;;;;
2019/12/05 01:28:16;;;;;;;29.85;14.7;;;;;;;-3.96;68.26465;95488.39;;;;
2019/12/05 01:29:17;;;;;;;29.85;14.7;;;;;;;-3.96;68.26465;95488.39;;;;
2019/12/05 01:30:18;;;;;;;29.85;14.7;;;;;;;-3.96;68.26465;95488.39;;;;
2019/12/05 01:31:19;;;;;;;29.85;14.7;;;;;;;-3.96;68.26465;95488.39;;;;
2019/12/05 01:32:20;;;;;;;29.85;14.7;;;;;;;-3.96;68.26465;95488.39;;;;
2019/12/05 01:33:21;;;;;;;28.25;14.35;;;;;;;-4.01;68.55762;95477.95;;;;
2019/12/05 01:34:22;;;;;;;28.25;14.35;;;;;;;-4.01;68.55762;95477.95;;;;
2019/12/05 01:35:23;;;;;;;28.25;14.35;;;;;;;-4.01;68.55762;95477.95;;;;
2019/12/05 01:36:25;;;;;;;28.25;14.35;;;;;;;-4.01;68.55762;95477.95;;;;
2019/12/05 01:37:26;;;;;;;28.25;14.35;;;;;;;-4.01;68.55762;95477.95;;;;
2019/12/05 01:38:27;;;;;;;28.25;14.35;;;;;;;-4.01;68.55762;95477.95;;;;
2019/12/05 01:39:28;;;;;;;28.25;14.35;;;;;;;-4.01;68.55762;95477.95;;;;
2019/12/05 01:40:29;;;;;;;28.25;14.35;;;;;;;-4.01;68.55762;95477.95;;;;
2019/12/05 01:41:30;;;;;;;28.25;14.35;;;;;;;-4.01;68.55762;95477.95;;;;
2019/12/05 01:42:31;;;;;;;28.25;14.35;;;;;;;-4.01;68.55762;95477.95;;;;
2019/12/05 01:43:32;;;;;;;28.25;14.35;;;;;;;-4.01;68.55762;95477.95;;;;
2019/12/05 01:44:33;;;;;;;32.5;15.45;;;;;;;-3.97;68.4082;95489.86;;;;
2019/12/05 01:45:34;;;;;;;32.5;15.45;;;;;;;-3.97;68.4082;95489.86;;;;
2019/12/05 01:46:35;;;;;;;32.5;15.45;;;;;;;-3.97;68.4082;95489.86;;;;
2019/12/05 01:47:37;;;;;;;32.5;15.45;;;;;;;-3.97;68.4082;95489.86;;;;
2019/12/05 01:48:38;;;;;;;32.5;15.45;;;;;;;-3.97;68.4082;95489.86;;;;
2019/12/05 01:49:39;;;;;;;32.5;15.45;;;;;;;-3.97;68.4082;95489.86;;;;
2019/12/05 01:50:40;;;;;;;32.5;15.45;;;;;;;-3.97;68.4082;95489.86;;;;
2019/12/05 01:51:41;;;;;;;32.5;15.45;;;;;;;-3.97;68.4082;95489.86;;;;
2019/12/05 01:52:42;;;;;;;32.5;15.45;;;;;;;-3.97;68.4082;95489.86;;;;
2019/12/05 01:53:43;;;;;;;32.5;15.45;;;;;;;-3.97;68.4082;95489.86;;;;
2019/12/05 01:54:44;;;;;;;35;17;;;;;;;-3.99;68.61035;95501.96;;;;
2019/12/05 01:55:45;;;;;;;35;17;;;;;;;-3.99;68.61035;95501.96;;;;
2019/12/05 01:56:46;;;;;;;35;17;;;;;;;-3.99;68.61035;95501.96;;;;
2019/12/05 01:57:47;;;;;;;35;17;;;;;;;-3.99;68.61035;95501.96;;;;
2019/12/05 01:58:48;;;;;;;35;17;;;;;;;-3.99;68.61035;95501.96;;;;
2019/12/05 01:59:49;;;;;;;35;17;;;;;;;-3.99;68.61035;95501.96;;;;
2019/12/05 02:00:51;;;;;;;35;17;;;;;;;-3.99;68.61035;95501.96;;;;
2019/12/05 02:01:52;;;;;;;35;17;;;;;;;-3.99;68.61035;95501.96;;;;
2019/12/05 02:02:53;;;;;;;35;17;;;;;;;-3.99;68.61035;95501.96;;;;
2019/12/05 02:03:54;;;;;;;35;17;;;;;;;-3.99;68.61035;95501.96;;;;
2019/12/05 02:04:55;;;;;;;30.9;16.3;;;;;;;-4.1;68.60449;95484.09;;;;
2019/12/05 02:05:56;;;;;;;30.9;16.3;;;;;;;-4.1;68.60449;95484.09;;;;
2019/12/05 02:06:57;;;;;;;30.9;16.3;;;;;;;-4.1;68.60449;95484.09;;;;
2019/12/05 02:07:59;;;;;;;30.9;16.3;;;;;;;-4.1;68.60449;95484.09;;;;
2019/12/05 02:09:00;;;;;;;30.9;16.3;;;;;;;-4.1;68.60449;95484.09;;;;
2019/12/05 02:10:02;;;;;;;30.9;16.3;;;;;;;-4.1;68.60449;95484.09;;;;
2019/12/05 02:11:03;;;;;;;30.9;16.3;;;;;;;-4.1;68.60449;95484.09;;;;
2019/12/05 02:12:04;;;;;;;30.9;16.3;;;;;;;-4.1;68.60449;95484.09;;;;
2019/12/05 02:13:05;;;;;;;30.9;16.3;;;;;;;-4.1;68.60449;95484.09;;;;
2019/12/05 02:14:07;;;;;;;30.9;16.3;;;;;;;-4.1;68.60449;95484.09;;;;
2019/12/05 02:15:13;;;;;;;30.9;16.3;;;;;;;-4.1;68.60449;95484.09;;;;
2019/12/05 02:16:37;;;;;;;29.4;15.05;;;;;;;-4.23;68.72754;95503.31;;;;
2019/12/05 02:23:28;;;;;;;29.4;15.05;;;;;;;-4.23;68.72754;95503.31;;;;
2019/12/05 02:24:30;;;;;;;29.4;15.05;;;;;;;-4.23;68.72754;95503.31;;;;
2019/12/05 02:25:31;;;;;;;29.4;15.05;;;;;;;-4.23;68.72754;95503.31;;;;
2019/12/05 02:26:32;;;;;;;34.8;17;;;;;;;-4.25;68.99316;95497.77;;;;
2019/12/05 02:27:33;;;;;;;34.8;17;;;;;;;-4.25;68.99316;95497.77;;;;
2019/12/05 02:28:35;;;;;;;34.8;17;;;;;;;-4.25;68.99316;95497.77;;;;
2019/12/05 02:29:36;;;;;;;34.8;17;;;;;;;-4.25;68.99316;95497.77;;;;
2019/12/05 02:30:37;;;;;;;34.8;17;;;;;;;-4.25;68.99316;95497.77;;;;
2019/12/05 02:31:38;;;;;;;34.8;17;;;;;;;-4.25;68.99316;95497.77;;;;
2019/12/05 02:32:40;;;;;;;34.8;17;;;;;;;-4.25;68.99316;95497.77;;;;
2019/12/05 02:33:41;;;;;;;34.8;17;;;;;;;-4.25;68.99316;95497.77;;;;
2019/12/05 02:34:42;;;;;;;34.8;17;;;;;;;-4.25;68.99316;95497.77;;;;
2019/12/05 02:35:43;;;;;;;34.8;17;;;;;;;-4.25;68.99316;95497.77;;;;
2019/12/05 02:36:44;;;;;;;34.8;17;;;;;;;-4.25;68.99316;95497.77;;;;
2019/12/05 02:37:45;;;;;;;29.4;14.85;;;;;;;-4.31;68.8916;95513.72;;;;
2019/12/05 02:38:46;;;;;;;29.4;14.85;;;;;;;-4.31;68.8916;95513.72;;;;
2019/12/05 02:39:48;;;;;;;29.4;14.85;;;;;;;-4.31;68.8916;95513.72;;;;
2019/12/05 02:40:49;;;;;;;29.4;14.85;;;;;;;-4.31;68.8916;95513.72;;;;
2019/12/05 02:41:50;;;;;;;29.4;14.85;;;;;;;-4.31;68.8916;95513.72;;;;
2019/12/05 02:42:51;;;;;;;29.4;14.85;;;;;;;-4.31;68.8916;95513.72;;;;
2019/12/05 02:43:52;;;;;;;29.4;14.85;;;;;;;-4.31;68.8916;95513.72;;;;
2019/12/05 02:44:54;;;;;;;29.4;14.85;;;;;;;-4.31;68.8916;95513.72;;;;
2019/12/05 02:45:55;;;;;;;29.4;14.85;;;;;;;-4.31;68.8916;95513.72;;;;
2019/12/05 02:46:56;;;;;;;29.4;14.85;;;;;;;-4.31;68.8916;95513.72;;;;
2019/12/05 02:47:57;;;;;;;28.15;14.3;;;;;;;-4.52;68.9502;95510.36;;;;
2019/12/05 02:48:58;;;;;;;28.15;14.3;;;;;;;-4.52;68.9502;95510.36;;;;
2019/12/05 02:49:59;;;;;;;28.15;14.3;;;;;;;-4.52;68.9502;95510.36;;;;
2019/12/05 02:51:01;;;;;;;28.15;14.3;;;;;;;-4.52;68.9502;95510.36;;;;
2019/12/05 02:52:02;;;;;;;28.15;14.3;;;;;;;-4.52;68.9502;95510.36;;;;
2019/12/05 02:53:03;;;;;;;28.15;14.3;;;;;;;-4.52;68.9502;95510.36;;;;
2019/12/05 02:54:04;;;;;;;28.15;14.3;;;;;;;-4.52;68.9502;95510.36;;;;
2019/12/05 02:55:05;;;;;;;28.15;14.3;;;;;;;-4.52;68.9502;95510.36;;;;
2019/12/05 02:56:07;;;;;;;28.15;14.3;;;;;;;-4.52;68.9502;95510.36;;;;
2019/12/05 02:57:08;;;;;;;28.15;14.3;;;;;;;-4.52;68.9502;95510.36;;;;
2019/12/05 02:58:09;;;;;;;28.55;14;;;;;;;-4.68;69.22266;95516.72;;;;
2019/12/05 02:59:10;;;;;;;28.55;14;;;;;;;-4.68;69.22266;95516.72;;;;
2019/12/05 03:00:11;;;;;;;28.55;14;;;;;;;-4.68;69.22266;95516.72;;;;
2019/12/05 03:01:12;;;;;;;28.55;14;;;;;;;-4.68;69.22266;95516.72;;;;
2019/12/05 03:02:14;;;;;;;28.55;14;;;;;;;-4.68;69.22266;95516.72;;;;
2019/12/05 03:03:15;;;;;;;28.55;14;;;;;;;-4.68;69.22266;95516.72;;;;
2019/12/05 03:04:17;;;;;;;28.55;14;;;;;;;-4.68;69.22266;95516.72;;;;
2019/12/05 03:05:18;;;;;;;28.55;14;;;;;;;-4.68;69.22266;95516.72;;;;
2019/12/05 03:06:19;;;;;;;28.55;14;;;;;;;-4.68;69.22266;95516.72;;;;
2019/12/05 03:07:20;;;;;;;28.55;14;;;;;;;-4.68;69.22266;95516.72;;;;
2019/12/05 03:08:21;;;;;;;28.55;14;;;;;;;-4.68;69.22266;95516.72;;;;
2019/12/05 03:09:25;;;;;;;30.05;13.35;;;;;;;-4.74;69.20313;95509.78;;;;
2019/12/05 03:10:29;;;;;;;30.05;13.35;;;;;;;-4.74;69.20313;95509.78;;;;
2019/12/05 03:11:46;;;;;;;30.05;13.35;;;;;;;-4.74;69.20313;95509.78;;;;
2019/12/05 03:13:25;;;;;;;30.05;13.35;;;;;;;-4.74;69.20313;95509.78;;;;
2019/12/05 03:15:36;;;;;;;30.05;13.35;;;;;;;-4.74;69.20313;95509.78;;;;
2019/12/05 03:21:47;;;;;;;28.3;13.3;;;;;;;-4.82;69.1377;95503.08;;;;
2019/12/05 03:22:48;;;;;;;28.3;13.3;;;;;;;-4.82;69.1377;95503.08;;;;
2019/12/05 03:23:49;;;;;;;28.3;13.3;;;;;;;-4.82;69.1377;95503.08;;;;
2019/12/05 03:24:50;;;;;;;28.3;13.3;;;;;;;-4.82;69.1377;95503.08;;;;
2019/12/05 03:25:52;;;;;;;28.3;13.3;;;;;;;-4.82;69.1377;95503.08;;;;
2019/12/05 03:26:53;;;;;;;28.3;13.3;;;;;;;-4.82;69.1377;95503.08;;;;
2019/12/05 03:27:54;;;;;;;28.3;13.3;;;;;;;-4.82;69.1377;95503.08;;;;
2019/12/05 03:28:55;;;;;;;28.3;13.3;;;;;;;-4.82;69.1377;95503.08;;;;
2019/12/05 03:29:56;;;;;;;36.10001;16.8;;;;;;;-4.79;69.56738;95501.89;;;;
2019/12/05 03:30:57;;;;;;;36.10001;16.8;;;;;;;-4.79;69.56738;95501.89;;;;
2019/12/05 03:31:58;;;;;;;36.10001;16.8;;;;;;;-4.79;69.56738;95501.89;;;;
2019/12/05 03:33:00;;;;;;;36.10001;16.8;;;;;;;-4.79;69.56738;95501.89;;;;
2019/12/05 03:34:01;;;;;;;36.10001;16.8;;;;;;;-4.79;69.56738;95501.89;;;;
2019/12/05 03:35:02;;;;;;;36.10001;16.8;;;;;;;-4.79;69.56738;95501.89;;;;
2019/12/05 03:36:03;;;;;;;36.10001;16.8;;;;;;;-4.79;69.56738;95501.89;;;;
2019/12/05 03:37:04;;;;;;;36.10001;16.8;;;;;;;-4.79;69.56738;95501.89;;;;
2019/12/05 03:38:05;;;;;;;36.10001;16.8;;;;;;;-4.79;69.56738;95501.89;;;;
2019/12/05 03:39:06;;;;;;;36.10001;16.8;;;;;;;-4.79;69.56738;95501.89;;;;
2019/12/05 03:40:07;;;;;;;36.10001;16.8;;;;;;;-4.79;69.56738;95501.89;;;;
2019/12/05 03:41:09;;;;;;;39;17.9;;;;;;;-4.39;69.68457;95510.07;;;;
2019/12/05 03:42:11;;;;;;;39;17.9;;;;;;;-4.39;69.68457;95510.07;;;;
2019/12/05 03:43:12;;;;;;;39;17.9;;;;;;;-4.39;69.68457;95510.07;;;;
2019/12/05 03:44:13;;;;;;;39;17.9;;;;;;;-4.39;69.68457;95510.07;;;;
2019/12/05 03:45:15;;;;;;;39;17.9;;;;;;;-4.39;69.68457;95510.07;;;;
2019/12/05 03:46:16;;;;;;;39;17.9;;;;;;;-4.39;69.68457;95510.07;;;;
2019/12/05 03:47:21;;;;;;;39;17.9;;;;;;;-4.39;69.68457;95510.07;;;;
2019/12/05 03:48:26;;;;;;;39;17.9;;;;;;;-4.39;69.68457;95510.07;;;;
2019/12/05 03:49:30;;;;;;;39;17.9;;;;;;;-4.39;69.68457;95510.07;;;;
2019/12/05 03:50:35;;;;;;;39;17.9;;;;;;;-4.39;69.68457;95510.07;;;;
2019/12/05 03:51:41;;;;;;;41.9;19.25;;;;;;;-4.02;69.24805;95515.83;;;;
2019/12/05 03:52:43;;;;;;;41.9;19.25;;;;;;;-4.02;69.24805;95515.83;;;;
2019/12/05 03:53:46;;;;;;;41.9;19.25;;;;;;;-4.02;69.24805;95515.83;;;;
2019/12/05 03:54:50;;;;;;;41.9;19.25;;;;;;;-4.02;69.24805;95515.83;;;;
2019/12/05 03:55:53;;;;;;;41.9;19.25;;;;;;;-4.02;69.24805;95515.83;;;;
2019/12/05 03:57:01;;;;;;;41.9;19.25;;;;;;;-4.02;69.24805;95515.83;;;;
2019/12/05 03:58:05;;;;;;;41.9;19.25;;;;;;;-4.02;69.24805;95515.83;;;;
2019/12/05 03:59:21;;;;;;;41.9;19.25;;;;;;;-4.02;69.24805;95515.83;;;;
2019/12/05 04:00:43;;;;;;;41.9;19.25;;;;;;;-4.02;69.24805;95515.83;;;;
2019/12/05 04:01:49;;;;;;;51.80001;21.45;;;;;;;-3.66;69.41211;95528.22;;;;
2019/12/05 04:03:03;;;;;;;51.80001;21.45;;;;;;;-3.66;69.41211;95528.22;;;;
2019/12/05 04:04:12;;;;;;;51.80001;21.45;;;;;;;-3.66;69.41211;95528.22;;;;
2019/12/05 04:05:33;;;;;;;51.80001;21.45;;;;;;;-3.66;69.41211;95528.22;;;;
2019/12/05 04:06:35;;;;;;;51.80001;21.45;;;;;;;-3.66;69.41211;95528.22;;;;
2019/12/05 04:07:36;;;;;;;51.80001;21.45;;;;;;;-3.66;69.41211;95528.22;;;;
2019/12/05 04:08:37;;;;;;;51.80001;21.45;;;;;;;-3.66;69.41211;95528.22;;;;
2019/12/05 04:09:38;;;;;;;51.80001;21.45;;;;;;;-3.66;69.41211;95528.22;;;;
2019/12/05 04:10:39;;;;;;;51.80001;21.45;;;;;;;-3.66;69.41211;95528.22;;;;
2019/12/05 04:11:40;;;;;;;51.80001;21.45;;;;;;;-3.66;69.41211;95528.22;;;;
2019/12/05 04:12:41;;;;;;;44.5;20.9;;;;;;;-3.35;69.22461;95544.64;;;;
2019/12/05 04:13:43;;;;;;;44.5;20.9;;;;;;;-3.35;69.22461;95544.64;;;;
2019/12/05 04:14:44;;;;;;;44.5;20.9;;;;;;;-3.35;69.22461;95544.64;;;;
2019/12/05 04:15:45;;;;;;;44.5;20.9;;;;;;;-3.35;69.22461;95544.64;;;;
2019/12/05 04:16:46;;;;;;;44.5;20.9;;;;;;;-3.35;69.22461;95544.64;;;;
2019/12/05 04:17:47;;;;;;;44.5;20.9;;;;;;;-3.35;69.22461;95544.64;;;;
2019/12/05 04:18:48;;;;;;;44.5;20.9;;;;;;;-3.35;69.22461;95544.64;;;;
2019/12/05 04:19:49;;;;;;;44.5;20.9;;;;;;;-3.35;69.22461;95544.64;;;;
2019/12/05 04:20:51;;;;;;;44.5;20.9;;;;;;;-3.35;69.22461;95544.64;;;;
2019/12/05 04:21:52;;;;;;;44.5;20.9;;;;;;;-3.35;69.22461;95544.64;;;;
2019/12/05 04:22:53;;;;;;;51;25.25;;;;;;;-3.12;69.57324;95543.69;;;;
2019/12/05 04:23:54;;;;;;;51;25.25;;;;;;;-3.12;69.57324;95543.69;;;;
2019/12/05 04:24:55;;;;;;;51;25.25;;;;;;;-3.12;69.57324;95543.69;;;;
2019/12/05 04:25:56;;;;;;;51;25.25;;;;;;;-3.12;69.57324;95543.69;;;;
2019/12/05 04:26:57;;;;;;;51;25.25;;;;;;;-3.12;69.57324;95543.69;;;;
2019/12/05 04:27:58;;;;;;;51;25.25;;;;;;;-3.12;69.57324;95543.69;;;;
2019/12/05 04:28:59;;;;;;;51;25.25;;;;;;;-3.12;69.57324;95543.69;;;;
2019/12/05 04:30:00;;;;;;;51;25.25;;;;;;;-3.12;69.57324;95543.69;;;;
2019/12/05 04:31:02;;;;;;;51;25.25;;;;;;;-3.12;69.57324;95543.69;;;;
2019/12/05 04:32:03;;;;;;;51;25.25;;;;;;;-3.12;69.57324;95543.69;;;;
2019/12/05 04:33:04;;;;;;;51;25.25;;;;;;;-3.12;69.57324;95543.69;;;;
2019/12/05 04:34:05;;;;;;;63.2;24.8;;;;;;;-2.87;69.89355;95546.95;;;;
2019/12/05 04:35:06;;;;;;;63.2;24.8;;;;;;;-2.87;69.89355;95546.95;;;;
2019/12/05 04:36:07;;;;;;;63.2;24.8;;;;;;;-2.87;69.89355;95546.95;;;;
2019/12/05 04:37:08;;;;;;;63.2;24.8;;;;;;;-2.87;69.89355;95546.95;;;;
2019/12/05 04:38:09;;;;;;;63.2;24.8;;;;;;;-2.87;69.89355;95546.95;;;;
2019/12/05 04:39:11;;;;;;;63.2;24.8;;;;;;;-2.87;69.89355;95546.95;;;;
2019/12/05 04:40:12;;;;;;;63.2;24.8;;;;;;;-2.87;69.89355;95546.95;;;;
2019/12/05 04:41:13;;;;;;;63.2;24.8;;;;;;;-2.87;69.89355;95546.95;;;;
2019/12/05 04:42:14;;;;;;;63.2;24.8;;;;;;;-2.87;69.89355;95546.95;;;;
2019/12/05 04:43:15;;;;;;;63.2;24.8;;;;;;;-2.87;69.89355;95546.95;;;;
2019/12/05 04:44:16;;;;;;;56.75;26.05;;;;;;;-2.66;70.08496;95557.17;;;;
2019/12/05 04:45:17;;;;;;;56.75;26.05;;;;;;;-2.66;70.08496;95557.17;;;;
2019/12/05 04:46:18;;;;;;;56.75;26.05;;;;;;;-2.66;70.08496;95557.17;;;;
2019/12/05 04:47:19;;;;;;;56.75;26.05;;;;;;;-2.66;70.08496;95557.17;;;;
2019/12/05 04:48:21;;;;;;;56.75;26.05;;;;;;;-2.66;70.08496;95557.17;;;;
2019/12/05 04:49:22;;;;;;;56.75;26.05;;;;;;;-2.66;70.08496;95557.17;;;;
2019/12/05 04:50:23;;;;;;;56.75;26.05;;;;;;;-2.66;70.08496;95557.17;;;;
2019/12/05 04:51:24;;;;;;;56.75;26.05;;;;;;;-2.66;70.08496;95557.17;;;;
2019/12/05 04:52:25;;;;;;;56.75;26.05;;;;;;;-2.66;70.08496;95557.17;;;;
2019/12/05 04:53:26;;;;;;;56.75;26.05;;;;;;;-2.66;70.08496;95557.17;;;;
2019/12/05 04:54:27;;;;;;;56.75;26.05;;;;;;;-2.66;70.08496;95557.17;;;;
2019/12/05 04:55:28;;;;;;;90.89999;28.25;;;;;;;-2.59;70.53223;95566.64;;;;
2019/12/05 04:56:29;;;;;;;90.89999;28.25;;;;;;;-2.59;70.53223;95566.64;;;;
2019/12/05 04:57:30;;;;;;;90.89999;28.25;;;;;;;-2.59;70.53223;95566.64;;;;
2019/12/05 04:58:32;;;;;;;90.89999;28.25;;;;;;;-2.59;70.53223;95566.64;;;;
2019/12/05 04:59:33;;;;;;;90.89999;28.25;;;;;;;-2.59;70.53223;95566.64;;;;
2019/12/05 05:00:34;;;;;;;90.89999;28.25;;;;;;;-2.59;70.53223;95566.64;;;;
2019/12/05 05:01:48;;;;;;;90.89999;28.25;;;;;;;-2.59;70.53223;95566.64;;;;
2019/12/05 05:07:59;;;;;;;70.49999;27.55;;;;;;;-2.53;70.80176;95582.39;;;;
2019/12/05 05:09:00;;;;;;;70.49999;27.55;;;;;;;-2.53;70.80176;95582.39;;;;
2019/12/05 05:10:02;;;;;;;70.49999;27.55;;;;;;;-2.53;70.80176;95582.39;;;;
2019/12/05 05:11:03;;;;;;;70.49999;27.55;;;;;;;-2.53;70.80176;95582.39;;;;
2019/12/05 05:12:05;;;;;;;70.49999;27.55;;;;;;;-2.53;70.80176;95582.39;;;;
2019/12/05 05:13:06;;;;;;;70.49999;27.55;;;;;;;-2.53;70.80176;95582.39;;;;
2019/12/05 05:14:07;;;;;;;70.49999;27.55;;;;;;;-2.53;70.80176;95582.39;;;;
2019/12/05 05:15:08;;;;;;;70.49999;27.55;;;;;;;-2.53;70.80176;95582.39;;;;
2019/12/05 05:16:09;;;;;;;83.79999;25.55;;;;;;;-2.46;71.19824;95575.95;;;;
2019/12/05 05:17:10;;;;;;;83.79999;25.55;;;;;;;-2.46;71.19824;95575.95;;;;
2019/12/05 05:18:20;;;;;;;83.79999;25.55;;;;;;;-2.46;71.19824;95575.95;;;;
2019/12/05 05:19:21;;;;;;;83.79999;25.55;;;;;;;-2.46;71.19824;95575.95;;;;
2019/12/05 05:20:22;;;;;;;83.79999;25.55;;;;;;;-2.46;71.19824;95575.95;;;;
2019/12/05 05:21:24;;;;;;;83.79999;25.55;;;;;;;-2.46;71.19824;95575.95;;;;
2019/12/05 05:22:25;;;;;;;83.79999;25.55;;;;;;;-2.46;71.19824;95575.95;;;;
2019/12/05 05:23:26;;;;;;;83.79999;25.55;;;;;;;-2.46;71.19824;95575.95;;;;
2019/12/05 05:24:27;;;;;;;83.79999;25.55;;;;;;;-2.46;71.19824;95575.95;;;;
2019/12/05 05:25:28;;;;;;;83.79999;25.55;;;;;;;-2.46;71.19824;95575.95;;;;
2019/12/05 05:26:29;;;;;;;83.79999;25.55;;;;;;;-2.46;71.19824;95575.95;;;;
2019/12/05 05:27:30;;;;;;;48.40001;23.25;;;;;;;-2.44;71.48242;95577.06;;;;
2019/12/05 05:28:31;;;;;;;48.40001;23.25;;;;;;;-2.44;71.48242;95577.06;;;;
2019/12/05 05:29:33;;;;;;;48.40001;23.25;;;;;;;-2.44;71.48242;95577.06;;;;
2019/12/05 05:30:34;;;;;;;48.40001;23.25;;;;;;;-2.44;71.48242;95577.06;;;;
2019/12/05 05:31:35;;;;;;;48.40001;23.25;;;;;;;-2.44;71.48242;95577.06;;;;
2019/12/05 05:32:36;;;;;;;48.40001;23.25;;;;;;;-2.44;71.48242;95577.06;;;;
2019/12/05 05:33:37;;;;;;;48.40001;23.25;;;;;;;-2.44;71.48242;95577.06;;;;
2019/12/05 05:34:38;;;;;;;48.40001;23.25;;;;;;;-2.44;71.48242;95577.06;;;;
2019/12/05 05:35:39;;;;;;;48.40001;23.25;;;;;;;-2.44;71.48242;95577.06;;;;
2019/12/05 05:36:41;;;;;;;48.40001;23.25;;;;;;;-2.44;71.48242;95577.06;;;;
2019/12/05 05:37:42;;;;;;;55.25;24.7;;;;;;;-2.38;72.0332;95594.97;;;;
2019/12/05 05:38:43;;;;;;;55.25;24.7;;;;;;;-2.38;72.0332;95594.97;;;;
2019/12/05 05:39:44;;;;;;;55.25;24.7;;;;;;;-2.38;72.0332;95594.97;;;;
2019/12/05 05:40:45;;;;;;;55.25;24.7;;;;;;;-2.38;72.0332;95594.97;;;;
2019/12/05 05:41:46;;;;;;;55.25;24.7;;;;;;;-2.38;72.0332;95594.97;;;;
2019/12/05 05:42:47;;;;;;;55.25;24.7;;;;;;;-2.38;72.0332;95594.97;;;;
2019/12/05 05:43:48;;;;;;;55.25;24.7;;;;;;;-2.38;72.0332;95594.97;;;;
2019/12/05 05:44:49;;;;;;;55.25;24.7;;;;;;;-2.38;72.0332;95594.97;;;;
2019/12/05 05:45:50;;;;;;;55.25;24.7;;;;;;;-2.38;72.0332;95594.97;;;;
2019/12/05 05:46:52;;;;;;;55.25;24.7;;;;;;;-2.38;72.0332;95594.97;;;;
2019/12/05 05:47:53;;;;;;;67.5;23.45;;;;;;;-2.39;71.94727;95610.47;;;;
2019/12/05 05:48:54;;;;;;;67.5;23.45;;;;;;;-2.39;71.94727;95610.47;;;;
2019/12/05 05:49:55;;;;;;;67.5;23.45;;;;;;;-2.39;71.94727;95610.47;;;;
2019/12/05 05:50:56;;;;;;;67.5;23.45;;;;;;;-2.39;71.94727;95610.47;;;;
2019/12/05 05:51:57;;;;;;;67.5;23.45;;;;;;;-2.39;71.94727;95610.47;;;;
2019/12/05 05:52:58;;;;;;;67.5;23.45;;;;;;;-2.39;71.94727;95610.47;;;;
2019/12/05 05:53:59;;;;;;;67.5;23.45;;;;;;;-2.39;71.94727;95610.47;;;;
2019/12/05 05:55:00;;;;;;;67.5;23.45;;;;;;;-2.39;71.94727;95610.47;;;;
2019/12/05 05:56:01;;;;;;;67.5;23.45;;;;;;;-2.39;71.94727;95610.47;;;;
2019/12/05 05:57:02;;;;;;;67.5;23.45;;;;;;;-2.39;71.94727;95610.47;;;;
2019/12/05 05:58:03;;;;;;;67.5;23.45;;;;;;;-2.39;71.94727;95610.47;;;;
2019/12/05 05:59:05;;;;;;;54.15;23.85;;;;;;;-2.43;72.51367;95609.52;;;;
2019/12/05 06:00:15;;;;;;;54.15;23.85;;;;;;;-2.43;72.51367;95609.52;;;;
2019/12/05 06:01:35;;;;;;;54.15;23.85;;;;;;;-2.43;72.51367;95609.52;;;;
2019/12/05 06:02:38;;;;;;;54.15;23.85;;;;;;;-2.43;72.51367;95609.52;;;;
2019/12/05 06:03:39;;;;;;;54.15;23.85;;;;;;;-2.43;72.51367;95609.52;;;;
2019/12/05 06:04:40;;;;;;;54.15;23.85;;;;;;;-2.43;72.51367;95609.52;;;;
2019/12/05 06:05:41;;;;;;;54.15;23.85;;;;;;;-2.43;72.51367;95609.52;;;;